Time;durP1;ratioP1;P1;durP2;ratioP2;P2;SDS_P1;SDS_P2;PMS_P1;PMS_P2;Temp;Humidity;BMP_temperature;BMP_pressure;BME280_temperature;BME280_humidity;BME280_pressure;Samples;Min_cycle;Max_cycle;Signal;HPM_P1;HPM_P2
2022/12/23 00:03:59;;;;;;;11.37;3.40;;;10.50;99.90;;;;;;4972035;28;20159;-63
2022/12/23 00:07:05;;;;;;;12.47;3.70;;;10.60;99.90;;;;;;4971824;28;20179;-63
2022/12/23 00:09:34;;;;;;;12.30;3.43;;;10.60;99.90;;;;;;4971057;28;20211;-63
2022/12/23 00:16:49;;;;;;;10.03;3.63;;;10.60;99.90;;;;;;4971600;28;20183;-63
2022/12/23 00:19:20;;;;;;;14.77;3.57;;;10.60;99.90;;;;;;4971685;28;20184;-64
2022/12/23 00:21:49;;;;;;;12.53;4.17;;;10.60;99.90;;;;;;4971936;28;20230;-63
2022/12/23 00:29:08;;;;;;;13.93;4.20;;;10.60;99.90;;;;;;4971791;28;20186;-63
2022/12/23 00:31:36;;;;;;;17.83;4.60;;;10.60;99.90;;;;;;4971424;28;20196;-63
2022/12/23 00:34:04;;;;;;;13.37;4.63;;;10.60;99.90;;;;;;4971600;28;20604;-63
2022/12/23 00:36:36;;;;;;;13.97;5.27;;;10.60;99.90;;;;;;4970145;28;20306;-63
2022/12/23 00:44:35;;;;;;;17.07;5.43;;;10.60;99.90;;;;;;4971292;28;20198;-63
2022/12/23 00:47:04;;;;;;;14.33;4.70;;;10.60;99.90;;;;;;4971495;28;20206;-63
2022/12/23 00:49:43;;;;;;;14.80;4.90;;;10.60;99.90;;;;;;4970133;28;20200;-64
2022/12/23 00:52:15;;;;;;;15.77;5.33;;;10.60;99.90;;;;;;4971067;28;20592;-63
2022/12/23 01:06:48;;;;;;;20.20;4.60;;;10.50;99.90;;;;;;4974636;28;20192;-64
2022/12/23 01:09:18;;;;;;;13.43;4.50;;;10.50;99.90;;;;;;4974623;28;20223;-63
2022/12/23 01:11:46;;;;;;;18.07;5.10;;;10.50;99.90;;;;;;4989236;28;20195;-63
2022/12/23 01:14:16;;;;;;;16.00;4.50;;;10.50;99.90;;;;;;4974744;28;20202;-64
2022/12/23 01:16:45;;;;;;;17.90;4.50;;;10.50;99.90;;;;;;4974455;28;20226;-64
2022/12/23 01:19:13;;;;;;;18.63;5.00;;;10.50;99.90;;;;;;4988863;28;20210;-64
2022/12/23 01:21:41;;;;;;;13.77;3.90;;;10.50;99.90;;;;;;4973926;28;20205;-63
2022/12/23 01:24:10;;;;;;;16.03;4.13;;;10.50;99.90;;;;;;4972575;28;20253;-64
2022/12/23 01:26:40;;;;;;;14.97;3.90;;;10.50;99.90;;;;;;4972950;28;20196;-63
2022/12/23 01:29:09;;;;;;;14.73;4.40;;;10.50;99.90;;;;;;4972736;28;20283;-63
2022/12/23 01:31:37;;;;;;;18.37;4.20;;;10.50;99.90;;;;;;4973822;28;20191;-63
2022/12/23 01:34:05;;;;;;;12.17;4.20;;;10.40;99.90;;;;;;4973021;28;20196;-63
2022/12/23 01:36:34;;;;;;;13.87;3.57;;;10.50;99.90;;;;;;4973546;28;20215;-63
2022/12/23 01:43:22;;;;;;;14.40;3.87;;;10.50;99.90;;;;;;4973588;28;20552;-63
2022/12/23 01:45:50;;;;;;;12.57;3.73;;;10.50;99.90;;;;;;4972740;28;20172;-64
2022/12/23 01:48:23;;;;;;;11.97;3.53;;;10.40;99.90;;;;;;4973518;28;20195;-63
2022/12/23 01:56:24;;;;;;;11.10;3.43;;;10.40;99.90;;;;;;4945279;29;20318;-63
2022/12/23 01:58:57;;;;;;;13.90;3.83;;;10.40;99.90;;;;;;4953251;29;20192;-63
2022/12/23 02:09:19;;;;;;;12.03;3.50;;;10.40;99.90;;;;;;4954039;29;20196;-64
2022/12/23 02:12:16;;;;;;;13.67;4.30;;;10.40;99.90;;;;;;4953406;28;20611;-63
2022/12/23 02:17:57;;;;;;;13.17;4.83;;;10.40;99.90;;;;;;4953115;29;20196;-64
2022/12/23 02:21:01;;;;;;;13.97;4.27;;;10.40;99.90;;;;;;4954000;28;20192;-64
2022/12/23 02:23:56;;;;;;;16.83;4.60;;;10.40;99.90;;;;;;4953480;29;20244;-63
2022/12/23 02:26:51;;;;;;;13.47;4.27;;;10.30;99.90;;;;;;4940703;29;20212;-63
2022/12/23 02:29:51;;;;;;;16.67;4.77;;;10.40;99.90;;;;;;4952484;29;20203;-63
2022/12/23 02:32:29;;;;;;;16.90;4.80;;;10.40;99.90;;;;;;4953651;29;20543;-63
2022/12/23 02:35:04;;;;;;;18.30;4.40;;;10.40;99.90;;;;;;4953850;28;20546;-63
2022/12/23 02:37:36;;;;;;;14.60;4.77;;;10.40;99.90;;;;;;4954016;28;20220;-63
2022/12/23 02:40:11;;;;;;;13.03;3.83;;;10.40;99.90;;;;;;4953986;28;20192;-63
2022/12/23 02:42:45;;;;;;;10.03;3.57;;;10.30;99.90;;;;;;4953738;28;20655;-64
2022/12/23 02:45:20;;;;;;;14.87;4.77;;;10.30;99.90;;;;;;4953433;29;20195;-62
2022/12/23 02:47:56;;;;;;;13.97;4.70;;;10.30;99.90;;;;;;4953403;29;20218;-63
2022/12/23 02:50:29;;;;;;;10.97;4.30;;;10.30;99.90;;;;;;4953493;28;20215;-64
2022/12/23 02:53:01;;;;;;;11.50;4.03;;;10.30;99.90;;;;;;4953406;28;20246;-63
2022/12/23 02:55:32;;;;;;;14.10;5.03;;;10.30;99.90;;;;;;4953223;28;20536;-63
2022/12/23 03:02:39;;;;;;;14.27;4.60;;;10.30;99.90;;;;;;4953331;28;20198;-64
2022/12/23 03:08:05;;;;;;;14.13;5.13;;;10.30;99.90;;;;;;5091879;27;20942;-63
2022/12/23 03:10:55;;;;;;;13.90;5.30;;;10.20;99.90;;;;;;5089534;28;20203;-63
2022/12/23 03:13:36;;;;;;;14.27;5.30;;;10.20;99.90;;;;;;5090728;28;20187;-63
2022/12/23 03:20:28;;;;;;;10.77;3.90;;;10.10;99.90;;;;;;5069701;28;20207;-63
2022/12/23 03:23:07;;;;;;;14.17;4.50;;;10.10;99.90;;;;;;5069051;28;20733;-64
2022/12/23 03:34:10;;;;;;;12.10;4.50;;;10.10;99.90;;;;;;5068980;28;20218;-62
2022/12/23 03:36:46;;;;;;;13.93;4.00;;;10.10;99.90;;;;;;5070079;28;20187;-63
2022/12/23 03:39:20;;;;;;;11.77;3.90;;;10.10;99.90;;;;;;5070234;28;20196;-62
2022/12/23 03:41:54;;;;;;;11.73;4.00;;;10.10;99.90;;;;;;5069921;28;20192;-63
2022/12/23 03:44:28;;;;;;;12.83;4.00;;;10.20;99.90;;;;;;5070113;28;20559;-63
2022/12/23 03:51:57;;;;;;;14.30;4.40;;;10.20;99.90;;;;;;5069820;28;20151;-63
2022/12/23 03:54:34;;;;;;;14.80;4.07;;;10.10;99.90;;;;;;5069732;28;20189;-63
2022/12/23 03:57:05;;;;;;;13.13;4.10;;;10.10;99.90;;;;;;5087511;28;20180;-63
2022/12/23 03:59:36;;;;;;;13.67;4.20;;;10.10;99.90;;;;;;5089945;28;20191;-62
2022/12/23 04:06:55;;;;;;;16.97;4.00;;;10.10;99.90;;;;;;5069196;28;20283;-63
2022/12/23 04:09:27;;;;;;;17.30;5.03;;;10.10;99.90;;;;;;5069563;28;20192;-63
2022/12/23 04:11:58;;;;;;;21.40;4.40;;;10.10;99.90;;;;;;5085173;28;20272;-63
2022/12/23 04:14:26;;;;;;;16.60;4.63;;;10.10;99.90;;;;;;5069399;28;20279;-63
2022/12/23 04:21:38;;;;;;;17.53;5.67;;;10.10;99.90;;;;;;5056004;28;20180;-62
2022/12/23 04:24:07;;;;;;;12.27;4.50;;;10.10;99.90;;;;;;5090892;28;20646;-63
2022/12/23 04:26:38;;;;;;;24.20;5.10;;;10.00;99.90;;;;;;5096041;28;20239;-63
2022/12/23 04:29:07;;;;;;;16.93;4.87;;;10.00;99.90;;;;;;5077961;28;20260;-63
2022/12/23 04:36:14;;;;;;;20.60;5.50;;;10.10;99.90;;;;;;5055697;28;20303;-62
2022/12/23 04:38:42;;;;;;;14.97;5.10;;;10.10;99.90;;;;;;5055843;28;20204;-63
2022/12/23 04:41:10;;;;;;;14.13;4.93;;;10.10;99.90;;;;;;5055579;28;20193;-63
2022/12/23 04:43:40;;;;;;;14.90;5.03;;;10.10;99.90;;;;;;5055768;28;20193;-63
2022/12/23 04:46:10;;;;;;;22.17;5.87;;;10.10;99.90;;;;;;5055400;28;20193;-63
2022/12/23 04:48:38;;;;;;;22.47;5.80;;;10.10;99.90;;;;;;5055389;28;20196;-63
2022/12/23 04:51:07;;;;;;;19.47;4.97;;;10.10;99.90;;;;;;5066592;28;20662;-63
2022/12/23 04:53:36;;;;;;;20.67;5.43;;;10.10;99.90;;;;;;5075522;28;20256;-63
2022/12/23 04:56:05;;;;;;;17.30;4.67;;;10.00;99.90;;;;;;5075324;28;20196;-63
2022/12/23 04:58:33;;;;;;;13.87;5.77;;;10.00;99.90;;;;;;5075302;28;20271;-63
2022/12/23 05:01:05;;;;;;;13.03;4.93;;;10.00;99.90;;;;;;5075188;28;20195;-63
2022/12/23 05:04:01;;;;;;;15.23;5.37;;;10.10;99.90;;;;;;5055553;28;20201;-63
2022/12/23 05:06:30;;;;;;;14.60;5.23;;;10.00;99.90;;;;;;5053618;28;20260;-63
2022/12/23 05:08:58;;;;;;;12.50;5.03;;;10.00;99.90;;;;;;5055470;28;20196;-62
2022/12/23 05:16:11;;;;;;;13.73;4.80;;;10.00;99.90;;;;;;5055149;28;20191;-63
2022/12/23 05:18:40;;;;;;;17.37;5.13;;;10.00;99.90;;;;;;5053759;28;20193;-63
2022/12/23 05:21:08;;;;;;;14.43;5.13;;;10.00;99.90;;;;;;5053743;28;20196;-63
2022/12/23 05:23:37;;;;;;;12.27;4.80;;;10.00;99.90;;;;;;5060338;28;20583;-63
2022/12/23 05:26:06;;;;;;;11.20;4.73;;;10.00;99.90;;;;;;5074690;28;20196;-62
2022/12/23 05:28:34;;;;;;;10.87;4.17;;;10.00;99.90;;;;;;5073924;28;20567;-63
2022/12/23 05:31:05;;;;;;;9.37;4.63;;;10.00;99.90;;;;;;5073695;28;20552;-63
2022/12/23 05:33:35;;;;;;;12.47;5.07;;;10.00;99.90;;;;;;5074532;28;20203;-63
2022/12/23 05:36:04;;;;;;;16.47;4.80;;;10.00;99.90;;;;;;5074349;28;20192;-63
2022/12/23 05:38:33;;;;;;;12.67;4.60;;;10.00;99.90;;;;;;5106875;28;20200;-62
2022/12/23 05:41:02;;;;;;;11.23;4.93;;;10.00;99.90;;;;;;5074519;28;20198;-62
2022/12/23 05:43:30;;;;;;;14.17;5.43;;;10.00;99.90;;;;;;5074637;28;20184;-62
2022/12/23 05:45:59;;;;;;;14.97;5.47;;;10.00;99.90;;;;;;5074492;28;20283;-63
2022/12/23 05:48:27;;;;;;;11.67;5.00;;;10.00;99.90;;;;;;5074272;28;20215;-63
2022/12/23 05:50:57;;;;;;;12.03;4.60;;;10.00;99.90;;;;;;5074643;28;20500;-63
2022/12/23 05:53:25;;;;;;;8.80;4.80;;;10.00;99.90;;;;;;5074213;28;20192;-63
2022/12/23 06:00:31;;;;;;;9.80;4.40;;;10.00;99.90;;;;;;5074160;28;20269;-63
2022/12/23 06:07:51;;;;;;;6.30;4.10;;;9.90;99.90;;;;;;5073916;28;20312;-63
2022/12/23 06:13:51;;;;;;;7.03;4.00;;;10.00;99.90;;;;;;5072529;28;20655;-63
2022/12/23 06:16:21;;;;;;;11.17;4.70;;;9.90;99.90;;;;;;5073282;28;20199;-63
2022/12/23 06:18:49;;;;;;;8.50;4.13;;;9.90;99.90;;;;;;5074185;28;20267;-63
2022/12/23 06:21:18;;;;;;;7.97;4.07;;;9.90;99.90;;;;;;5073705;28;20546;-63
2022/12/23 06:23:47;;;;;;;7.07;4.60;;;9.90;99.90;;;;;;5073023;28;20188;-63
2022/12/23 06:26:16;;;;;;;7.63;3.83;;;9.90;99.90;;;;;;5073618;28;20188;-63
2022/12/23 06:28:44;;;;;;;10.43;3.77;;;9.80;99.90;;;;;;5073419;28;20212;-62
2022/12/23 06:31:12;;;;;;;11.80;4.13;;;9.80;99.90;;;;;;5073474;28;20195;-63
2022/12/23 06:33:41;;;;;;;10.53;4.30;;;9.70;99.90;;;;;;5072583;28;20528;-62
2022/12/23 06:36:09;;;;;;;12.90;4.50;;;9.70;99.90;;;;;;5073755;28;20659;-62
2022/12/23 06:38:38;;;;;;;16.87;4.73;;;9.70;99.90;;;;;;5073762;28;20188;-62
2022/12/23 06:41:07;;;;;;;14.27;4.70;;;9.70;99.90;;;;;;5073270;28;20192;-63
2022/12/23 06:43:36;;;;;;;11.07;4.40;;;9.70;99.90;;;;;;5073358;28;20299;-63
2022/12/23 06:46:05;;;;;;;10.13;4.57;;;9.80;99.90;;;;;;5073739;28;20539;-63
2022/12/23 06:48:33;;;;;;;13.30;4.70;;;9.80;99.90;;;;;;5073613;28;20221;-63
2022/12/23 06:51:02;;;;;;;9.83;4.70;;;9.80;99.90;;;;;;5073771;28;20192;-63
2022/12/23 06:53:30;;;;;;;10.73;4.23;;;9.70;99.90;;;;;;5072022;28;20196;-62
2022/12/23 06:56:02;;;;;;;16.57;5.37;;;9.70;99.90;;;;;;5073249;28;20212;-63
2022/12/23 06:58:32;;;;;;;10.87;4.80;;;9.70;99.90;;;;;;5073514;28;20662;-63
2022/12/23 07:01:01;;;;;;;12.83;4.87;;;9.70;99.90;;;;;;5073467;28;20196;-62
2022/12/23 07:03:29;;;;;;;15.43;5.83;;;9.70;99.90;;;;;;5071984;28;20662;-63
2022/12/23 07:05:58;;;;;;;8.87;4.83;;;9.70;99.90;;;;;;5072884;28;20231;-63
2022/12/23 07:08:29;;;;;;;14.53;5.00;;;9.70;99.90;;;;;;5073013;28;20214;-62
2022/12/23 07:10:59;;;;;;;12.10;5.13;;;9.70;99.90;;;;;;5073311;28;20188;-63
2022/12/23 07:13:27;;;;;;;11.60;5.17;;;9.70;99.90;;;;;;5073088;28;20219;-62
2022/12/23 07:15:57;;;;;;;16.10;4.90;;;9.70;99.90;;;;;;5073372;28;20188;-62
2022/12/23 07:18:26;;;;;;;9.97;4.70;;;9.60;99.90;;;;;;5073351;28;20186;-63
2022/12/23 07:21:00;;;;;;;14.47;4.73;;;9.60;99.90;;;;;;5073023;28;20287;-62
2022/12/23 07:23:28;;;;;;;13.77;5.33;;;9.60;99.90;;;;;;5073031;28;20698;-62
2022/12/23 07:25:57;;;;;;;14.07;6.23;;;9.60;99.90;;;;;;5071651;28;20677;-62
2022/12/23 07:28:25;;;;;;;18.13;7.17;;;9.60;99.90;;;;;;5072090;28;20685;-62
2022/12/23 07:30:53;;;;;;;17.23;7.70;;;9.60;99.90;;;;;;5073776;28;20203;-62
2022/12/23 07:33:23;;;;;;;24.33;9.07;;;9.70;99.90;;;;;;5072953;28;20180;-62
2022/12/23 07:35:51;;;;;;;28.97;9.80;;;9.60;99.90;;;;;;5072922;28;20197;-62
2022/12/23 07:38:20;;;;;;;30.27;11.13;;;9.70;99.90;;;;;;5072866;28;20188;-62
2022/12/23 07:40:49;;;;;;;31.93;12.23;;;9.70;99.90;;;;;;5071693;28;20188;-62
2022/12/23 07:43:19;;;;;;;30.27;12.83;;;9.70;99.90;;;;;;5073325;28;20246;-62
2022/12/23 07:45:47;;;;;;;38.87;12.40;;;9.80;99.90;;;;;;5071883;28;20665;-62
2022/12/23 07:48:26;;;;;;;35.10;13.40;;;9.80;99.90;;;;;;5073153;28;20394;-62
2022/12/23 07:51:00;;;;;;;27.80;11.47;;;9.80;99.90;;;;;;5073198;28;20188;-62
2022/12/23 07:53:29;;;;;;;33.27;11.53;;;9.80;99.90;;;;;;5074288;28;20192;-62
2022/12/23 07:55:57;;;;;;;27.10;12.03;;;9.80;99.90;;;;;;5076510;28;20189;-62
2022/12/23 07:58:26;;;;;;;32.83;11.77;;;9.70;99.90;;;;;;5076410;28;20215;-62
2022/12/23 08:01:00;;;;;;;25.43;10.13;;;9.70;99.90;;;;;;5076287;28;20214;-63
2022/12/23 08:03:31;;;;;;;35.13;11.23;;;9.80;99.90;;;;;;5077673;28;20192;-63
2022/12/23 08:06:01;;;;;;;34.17;10.13;;;9.70;99.90;;;;;;5076023;28;20232;-62
2022/12/23 08:08:30;;;;;;;26.47;10.67;;;9.70;99.90;;;;;;5075019;28;20218;-62
2022/12/23 08:11:00;;;;;;;21.90;9.83;;;9.80;99.90;;;;;;5076555;28;20192;-63
2022/12/23 08:13:28;;;;;;;28.37;9.90;;;9.80;99.90;;;;;;5076437;28;20192;-62
2022/12/23 08:15:57;;;;;;;30.13;9.73;;;9.70;99.90;;;;;;5076127;28;20208;-62
2022/12/23 08:18:26;;;;;;;29.67;8.90;;;9.70;99.90;;;;;;5076118;28;20223;-63
2022/12/23 08:20:58;;;;;;;35.73;9.80;;;9.70;99.90;;;;;;5075998;28;20706;-63
2022/12/23 08:23:28;;;;;;;25.23;8.73;;;9.70;99.90;;;;;;5075303;28;20238;-62
2022/12/23 08:26:01;;;;;;;24.63;8.73;;;9.70;99.90;;;;;;5075946;28;20192;-62
2022/12/23 08:28:30;;;;;;;24.90;8.77;;;9.70;99.90;;;;;;5075761;28;20216;-63
2022/12/23 08:31:04;;;;;;;26.10;8.70;;;9.70;99.90;;;;;;5076335;28;20188;-63
2022/12/23 08:33:33;;;;;;;26.17;9.40;;;9.70;99.90;;;;;;5108330;28;20658;-63
2022/12/23 08:36:03;;;;;;;26.87;9.60;;;9.70;99.90;;;;;;5075786;28;20188;-62
2022/12/23 08:38:32;;;;;;;25.23;8.93;;;9.70;99.90;;;;;;5075580;28;20234;-63
2022/12/23 08:41:01;;;;;;;20.80;9.33;;;9.70;99.90;;;;;;5075857;28;20279;-62
2022/12/23 08:43:29;;;;;;;23.13;9.87;;;9.70;99.90;;;;;;5057565;28;20198;-64
2022/12/23 08:46:03;;;;;;;26.17;9.10;;;9.70;99.90;;;;;;5075449;28;20222;-63
2022/12/23 08:48:32;;;;;;;23.20;9.40;;;9.70;99.90;;;;;;5075505;28;20593;-63
2022/12/23 08:51:06;;;;;;;23.33;8.77;;;9.70;99.90;;;;;;5075420;28;20192;-62
2022/12/23 08:53:35;;;;;;;27.93;9.77;;;9.70;99.90;;;;;;5075906;28;20188;-62
2022/12/23 08:56:05;;;;;;;19.17;8.63;;;9.70;99.90;;;;;;5074314;28;20192;-63
2022/12/23 08:58:37;;;;;;;27.50;9.70;;;9.70;99.90;;;;;;5075457;28;20199;-63
2022/12/23 09:01:08;;;;;;;22.53;9.53;;;9.60;99.90;;;;;;5075330;28;20222;-63
2022/12/23 09:03:37;;;;;;;26.97;10.40;;;9.60;99.90;;;;;;5075152;28;20218;-63
2022/12/23 09:06:09;;;;;;;22.40;9.33;;;9.60;99.90;;;;;;5074999;28;20714;-63
2022/12/23 09:08:38;;;;;;;24.03;10.33;;;9.60;99.90;;;;;;5075318;28;20633;-63
2022/12/23 09:11:09;;;;;;;22.90;9.90;;;9.60;99.90;;;;;;5075090;28;20189;-63
2022/12/23 09:13:37;;;;;;;25.13;10.10;;;9.50;99.90;;;;;;5073798;28;20184;-63
2022/12/23 09:16:07;;;;;;;22.67;10.30;;;9.50;99.90;;;;;;5073732;28;20722;-64
2022/12/23 09:18:36;;;;;;;20.57;10.60;;;9.60;99.90;;;;;;5074895;28;20693;-64
2022/12/23 09:25:44;;;;;;;26.63;11.33;;;9.50;99.90;;;;;;5074965;28;20164;-63
2022/12/23 09:28:13;;;;;;;22.77;11.03;;;9.50;99.90;;;;;;5074329;28;20650;-64
2022/12/23 09:30:41;;;;;;;28.20;10.70;;;9.50;99.90;;;;;;5074938;28;20204;-64
2022/12/23 09:33:10;;;;;;;21.93;10.77;;;9.50;99.90;;;;;;5074717;28;20196;-64
2022/12/23 09:35:38;;;;;;;26.80;11.53;;;9.50;99.90;;;;;;5074807;28;20648;-64
2022/12/23 09:38:07;;;;;;;20.50;10.13;;;9.50;99.90;;;;;;5074702;28;20200;-64
2022/12/23 09:40:37;;;;;;;25.27;11.10;;;9.50;99.90;;;;;;5074529;28;20199;-64
2022/12/23 09:43:15;;;;;;;28.70;11.30;;;9.50;99.90;;;;;;5074477;28;20199;-64
2022/12/23 09:46:04;;;;;;;22.33;11.50;;;9.50;99.90;;;;;;5074426;28;20224;-64
2022/12/23 09:48:36;;;;;;;26.00;12.13;;;9.50;99.90;;;;;;5073789;28;20180;-64
2022/12/23 09:51:05;;;;;;;29.77;12.10;;;9.60;99.90;;;;;;5074232;28;20721;-64
2022/12/23 09:53:45;;;;;;;25.53;11.73;;;9.60;99.90;;;;;;5074603;28;20188;-64
2022/12/23 09:56:19;;;;;;;25.90;11.60;;;9.60;99.90;;;;;;5074184;28;20195;-64
2022/12/23 09:58:55;;;;;;;25.77;11.53;;;9.60;99.90;;;;;;5074663;28;20204;-64
2022/12/23 10:01:33;;;;;;;23.10;11.27;;;9.60;99.90;;;;;;5074364;28;20191;-64
2022/12/23 10:27:18;;;;;;;25.20;10.03;;;9.60;99.90;;;;;;5073802;28;20223;-64
2022/12/23 10:29:47;;;;;;;19.93;10.03;;;9.60;99.90;;;;;;5073622;28;20551;-64
2022/12/23 10:32:27;;;;;;;14.83;9.43;;;9.60;99.90;;;;;;5072322;28;20715;-64
2022/12/23 10:35:06;;;;;;;20.13;11.27;;;9.70;99.90;;;;;;5073725;28;20191;-64
2022/12/23 10:37:43;;;;;;;23.17;11.40;;;9.70;99.90;;;;;;5073765;28;20176;-65
2022/12/23 10:40:20;;;;;;;25.27;11.40;;;9.70;99.90;;;;;;5074297;28;20199;-64
2022/12/23 10:43:01;;;;;;;24.20;12.70;;;9.80;99.90;;;;;;5073813;28;20646;-64
2022/12/23 10:45:43;;;;;;;24.73;11.80;;;9.80;99.90;;;;;;5073385;28;20253;-64
2022/12/23 10:48:25;;;;;;;20.23;10.67;;;9.80;99.90;;;;;;5073651;28;20194;-64
2022/12/23 10:51:01;;;;;;;23.60;12.60;;;9.80;99.90;;;;;;5073353;28;20584;-65
2022/12/23 10:53:35;;;;;;;28.83;13.77;;;9.90;99.90;;;;;;5073526;28;20243;-65
2022/12/23 10:56:06;;;;;;;25.97;14.17;;;9.90;99.90;;;;;;5073341;28;20188;-65
2022/12/23 10:58:40;;;;;;;32.03;14.07;;;9.90;99.90;;;;;;5073342;28;20265;-64
2022/12/23 11:01:12;;;;;;;28.00;13.07;;;9.90;99.90;;;;;;5073680;28;20184;-64
2022/12/23 11:04:33;;;;;;;24.53;12.47;;;9.90;99.90;;;;;;5073416;28;20250;-65
2022/12/23 11:07:39;;;;;;;29.90;13.53;;;9.90;99.90;;;;;;5073037;28;20690;-65
2022/12/23 11:10:27;;;;;;;28.60;13.40;;;9.90;99.90;;;;;;5073390;28;20196;-64
2022/12/23 11:12:56;;;;;;;27.73;12.47;;;9.90;99.90;;;;;;5073217;28;20278;-64
2022/12/23 11:15:32;;;;;;;29.20;13.57;;;10.00;99.90;;;;;;5073791;28;20192;-65
2022/12/23 11:18:06;;;;;;;27.63;12.90;;;10.00;99.90;;;;;;5073272;28;20200;-65
2022/12/23 11:20:36;;;;;;;29.50;12.57;;;10.00;99.90;;;;;;5071825;28;20183;-65
2022/12/23 11:23:06;;;;;;;25.27;11.83;;;10.00;99.90;;;;;;5106193;28;20196;-65
2022/12/23 11:25:37;;;;;;;25.97;12.13;;;10.00;99.90;;;;;;5071743;28;20184;-65
2022/12/23 11:28:13;;;;;;;24.27;11.00;;;10.00;99.90;;;;;;5074080;28;20195;-64
2022/12/23 11:30:53;;;;;;;23.83;11.43;;;10.00;99.90;;;;;;5076960;28;20289;-64
2022/12/23 11:37:50;;;;;;;22.90;11.10;;;10.10;99.90;;;;;;5076813;28;20184;-64
2022/12/23 11:45:00;;;;;;;17.20;9.80;;;10.20;99.90;;;;;;5076861;28;20539;-64
2022/12/23 11:47:37;;;;;;;17.60;9.30;;;10.30;99.90;;;;;;5075545;28;20196;-63
2022/12/23 11:50:34;;;;;;;19.87;9.33;;;10.40;99.90;;;;;;5076589;28;20306;-64
2022/12/23 11:53:13;;;;;;;13.57;8.53;;;10.50;99.90;;;;;;5077419;28;20275;-64
2022/12/23 11:55:48;;;;;;;15.03;8.67;;;10.70;99.90;;;;;;5076526;28;20199;-64
2022/12/23 11:58:21;;;;;;;16.77;8.43;;;10.80;99.90;;;;;;5076755;28;20278;-64
2022/12/23 12:00:58;;;;;;;14.87;8.27;;;10.80;99.90;;;;;;5076452;28;20223;-64
2022/12/23 12:03:31;;;;;;;13.10;8.60;;;11.00;99.90;;;;;;5077083;28;20258;-63
2022/12/23 12:06:02;;;;;;;11.73;8.30;;;11.10;99.90;;;;;;5076153;28;20759;-64
2022/12/23 12:13:25;;;;;;;12.13;8.63;;;11.30;99.90;;;;;;5076289;28;20301;-64
2022/12/23 12:16:02;;;;;;;13.67;9.07;;;11.50;99.90;;;;;;5074934;28;20192;-64
2022/12/23 12:18:33;;;;;;;15.13;9.20;;;11.60;99.90;;;;;;5076390;28;20188;-63
2022/12/23 12:21:05;;;;;;;11.77;9.47;;;11.70;99.90;;;;;;5076264;28;20184;-63
2022/12/23 12:23:42;;;;;;;11.30;9.53;;;11.80;99.90;;;;;;5075173;28;20647;-63
2022/12/23 12:26:17;;;;;;;11.77;9.17;;;11.90;99.90;;;;;;5076458;28;20188;-64
2022/12/23 12:28:50;;;;;;;10.77;8.07;;;12.10;99.90;;;;;;5076298;28;20180;-64
2022/12/23 12:31:24;;;;;;;14.30;8.77;;;12.20;99.90;;;;;;5075803;28;20211;-64
2022/12/23 12:34:00;;;;;;;11.03;8.20;;;12.40;99.90;;;;;;5108589;28;20200;-63
2022/12/23 12:36:37;;;;;;;6.93;6.23;;;12.50;99.90;;;;;;5076087;28;20202;-64
2022/12/23 12:39:08;;;;;;;10.00;7.10;;;12.60;99.90;;;;;;5075301;28;20192;-63
2022/12/23 12:41:39;;;;;;;8.47;7.00;;;12.60;99.90;;;;;;5075039;28;20619;-64
2022/12/23 12:44:30;;;;;;;7.10;6.27;;;12.70;99.90;;;;;;5075973;28;20200;-64
2022/12/23 12:47:04;;;;;;;5.53;5.03;;;12.70;99.90;;;;;;5075960;28;20181;-64
2022/12/23 12:50:00;;;;;;;5.13;4.70;;;12.70;99.90;;;;;;5074615;28;20188;-64
2022/12/23 12:52:35;;;;;;;4.47;4.17;;;12.70;99.90;;;;;;5074579;28;20568;-64
2022/12/23 12:55:12;;;;;;;4.67;4.27;;;12.70;99.90;;;;;;5074218;28;20281;-64
2022/12/23 12:57:41;;;;;;;5.03;3.60;;;12.70;99.90;;;;;;5075956;28;20228;-64
2022/12/23 13:00:15;;;;;;;3.53;3.33;;;12.70;99.90;;;;;;5075314;28;20192;-64
2022/12/23 13:03:02;;;;;;;3.43;3.23;;;12.80;99.90;;;;;;5075318;28;20192;-63
2022/12/23 13:05:50;;;;;;;5.03;3.23;;;12.80;99.90;;;;;;5075612;28;20242;-64
2022/12/23 13:08:34;;;;;;;3.83;2.93;;;12.80;99.90;;;;;;5075042;28;20232;-64
2022/12/23 13:11:09;;;;;;;3.50;2.83;;;12.80;99.90;;;;;;5074532;28;20247;-64
2022/12/23 13:13:47;;;;;;;3.50;3.20;;;12.90;99.90;;;;;;5075147;28;20195;-64
2022/12/23 13:16:25;;;;;;;6.77;2.47;;;12.90;99.90;;;;;;5073482;28;20192;-64
2022/12/23 13:19:00;;;;;;;5.43;2.70;;;12.90;99.90;;;;;;5074521;28;20279;-64
2022/12/23 13:21:39;;;;;;;3.70;2.40;;;13.00;99.90;;;;;;5073476;28;20180;-64
2022/12/23 13:24:17;;;;;;;2.37;2.23;;;12.90;99.90;;;;;;5074395;28;20219;-65
2022/12/23 13:26:56;;;;;;;2.23;2.13;;;12.90;99.90;;;;;;5075381;28;20184;-64
2022/12/23 13:29:47;;;;;;;6.77;2.57;;;12.90;99.90;;;;;;5074872;28;20215;-64
2022/12/23 13:32:35;;;;;;;2.47;2.27;;;12.90;99.90;;;;;;5064651;28;20232;-63
2022/12/23 13:35:17;;;;;;;2.57;2.47;;;12.90;99.90;;;;;;5074919;28;20183;-63
2022/12/23 13:37:55;;;;;;;2.47;2.27;;;12.90;99.90;;;;;;5074659;28;20192;-63
2022/12/23 13:40:36;;;;;;;2.00;1.90;;;12.90;99.90;;;;;;5074644;28;20223;-64
2022/12/23 13:43:12;;;;;;;4.23;1.70;;;12.90;99.90;;;;;;5074577;28;20192;-63
2022/12/23 13:45:42;;;;;;;3.03;1.80;;;12.90;99.90;;;;;;5074740;28;20195;-63
2022/12/23 13:48:36;;;;;;;2.67;1.70;;;12.80;99.90;;;;;;5074342;28;20203;-64
2022/12/23 13:55:47;;;;;;;5.90;1.90;;;12.90;99.90;;;;;;5074280;28;20176;-64
2022/12/23 13:58:18;;;;;;;2.60;1.77;;;12.80;99.90;;;;;;5074243;28;20192;-64
2022/12/23 14:00:56;;;;;;;5.07;1.90;;;12.90;99.90;;;;;;5074033;28;20188;-63
2022/12/23 14:03:33;;;;;;;3.30;2.60;;;12.90;99.90;;;;;;5074225;28;20180;-64
2022/12/23 14:06:42;;;;;;;7.93;3.53;;;12.90;99.90;;;;;;5074116;28;20227;-64
2022/12/23 14:09:16;;;;;;;4.30;2.90;;;12.80;99.90;;;;;;5073956;28;20199;-63
2022/12/23 14:11:45;;;;;;;9.17;3.40;;;12.80;99.90;;;;;;5072659;28;20555;-63
2022/12/23 14:14:21;;;;;;;8.40;2.47;;;12.80;99.90;;;;;;5073956;28;20550;-64
2022/12/23 14:16:58;;;;;;;9.80;3.07;;;12.80;99.90;;;;;;5074211;28;20196;-63
2022/12/23 14:20:13;;;;;;;6.83;2.30;;;12.80;99.90;;;;;;5072630;28;20200;-63
2022/12/23 14:22:53;;;;;;;7.33;2.93;;;12.80;99.90;;;;;;5073781;28;20184;-63
2022/12/23 14:29:58;;;;;;;9.73;2.93;;;12.70;99.90;;;;;;5073701;28;20175;-63
2022/12/23 14:32:42;;;;;;;9.47;2.50;;;12.70;99.90;;;;;;5073027;28;20204;-63
2022/12/23 14:35:24;;;;;;;5.70;2.80;;;12.60;99.90;;;;;;5073630;28;20562;-63
2022/12/23 14:38:23;;;;;;;16.60;2.60;;;12.70;99.90;;;;;;5074144;28;20223;-64
2022/12/23 14:41:09;;;;;;;12.77;2.67;;;12.60;99.90;;;;;;5074214;28;20181;-63
2022/12/23 14:43:55;;;;;;;10.73;3.30;;;12.60;99.90;;;;;;5061232;28;20295;-63
2022/12/23 14:46:53;;;;;;;13.27;3.10;;;12.50;99.90;;;;;;5072640;28;20243;-63
2022/12/23 14:49:38;;;;;;;13.43;3.53;;;12.50;99.90;;;;;;5072483;28;20184;-63
2022/12/23 14:52:36;;;;;;;19.27;5.53;;;12.50;99.90;;;;;;5073317;28;20215;-64
2022/12/23 14:55:39;;;;;;;18.00;4.90;;;12.40;99.90;;;;;;5073443;28;20172;-63
2022/12/23 14:58:27;;;;;;;22.50;5.07;;;12.40;99.90;;;;;;5073412;28;20192;-64
2022/12/23 15:01:02;;;;;;;12.37;3.57;;;12.40;99.90;;;;;;5071309;28;20291;-63
2022/12/23 15:03:40;;;;;;;24.37;5.73;;;12.30;99.90;;;;;;5073598;28;20274;-63
2022/12/23 15:06:08;;;;;;;28.13;4.93;;;12.30;99.90;;;;;;5073245;28;20708;-63
2022/12/23 15:08:40;;;;;;;22.27;4.77;;;12.30;99.90;;;;;;5056072;28;20196;-63
2022/12/23 15:11:15;;;;;;;27.63;4.63;;;12.20;99.90;;;;;;5073257;28;20195;-63
2022/12/23 15:13:44;;;;;;;24.63;4.33;;;12.20;99.90;;;;;;5074062;28;20626;-63
2022/12/23 15:16:17;;;;;;;20.33;4.17;;;12.20;99.90;;;;;;5073128;28;20192;-64
2022/12/23 15:18:56;;;;;;;24.30;4.20;;;12.10;99.90;;;;;;5073693;28;20241;-63
2022/12/23 15:21:30;;;;;;;20.37;3.90;;;12.20;99.90;;;;;;5073372;28;20192;-63
2022/12/23 15:23:59;;;;;;;24.17;4.27;;;12.20;99.90;;;;;;5073345;28;20187;-63
2022/12/23 15:26:30;;;;;;;31.70;5.40;;;12.30;99.90;;;;;;5071737;28;20223;-63
2022/12/23 15:29:02;;;;;;;28.10;4.70;;;12.20;99.90;;;;;;5073307;28;20216;-63
2022/12/23 15:32:10;;;;;;;25.77;4.80;;;12.20;99.90;;;;;;5073201;28;20295;-62
2022/12/23 15:34:41;;;;;;;23.07;3.93;;;12.20;99.90;;;;;;5073334;28;20184;-63
2022/12/23 15:37:12;;;;;;;29.57;5.10;;;12.20;99.90;;;;;;5072184;28;20191;-63
2022/12/23 15:39:43;;;;;;;27.50;4.97;;;12.20;99.90;;;;;;5072197;28;20200;-63
2022/12/23 15:42:21;;;;;;;29.07;4.60;;;12.20;99.90;;;;;;5073013;28;20204;-63
2022/12/23 15:44:50;;;;;;;35.03;6.17;;;12.20;99.90;;;;;;5072874;28;20279;-63
2022/12/23 15:47:29;;;;;;;25.83;4.63;;;12.10;99.90;;;;;;5073299;28;20188;-62
2022/12/23 15:49:59;;;;;;;26.77;5.17;;;12.10;99.90;;;;;;5073376;28;20196;-63
2022/12/23 15:52:30;;;;;;;30.63;6.00;;;12.00;99.90;;;;;;5055061;28;20214;-63
2022/12/23 15:55:02;;;;;;;26.67;5.37;;;12.00;99.90;;;;;;5072741;28;20200;-63